Time;durP1;ratioP1;P1;durP2;ratioP2;P2;SDS_P1;SDS_P2;PMS_P1;PMS_P2;Temp;Humidity;BMP_temperature;BMP_pressure;BME280_temperature;BME280_humidity;BME280_pressure;Samples;Min_cycle;Max_cycle;Signal;HPM_P1;HPM_P2
2022/01/25 00:09:59;;;;;;;5.30;4.50;;;;;;;4.05;100.00;100757.75;5085917;28;20217;-83
2022/01/25 00:15:27;;;;;;;6.60;4.67;;;;;;;4.10;100.00;100751.56;5115538;28;20202;-82
2022/01/25 00:26:20;;;;;;;6.23;5.10;;;;;;;4.09;100.00;100759.47;5115184;28;20195;-83
2022/01/25 00:29:03;;;;;;;5.00;4.50;;;;;;;4.17;100.00;100760.25;5113822;28;20198;-83
2022/01/25 00:31:31;;;;;;;6.27;4.67;;;;;;;4.19;100.00;100758.47;5113883;28;20230;-83
2022/01/25 00:34:00;;;;;;;7.07;4.70;;;;;;;4.22;100.00;100768.91;5109198;28;20194;-83
2022/01/25 00:36:29;;;;;;;5.40;4.80;;;;;;;4.17;100.00;100753.25;5111211;28;20228;-83
2022/01/25 00:38:58;;;;;;;5.23;4.50;;;;;;;4.10;100.00;100748.09;5115368;28;20187;-82
2022/01/25 00:41:26;;;;;;;6.17;4.70;;;;;;;4.01;100.00;100749.94;5114958;28;20548;-82
2022/01/25 00:43:59;;;;;;;6.27;4.70;;;;;;;4.01;100.00;100751.69;5113183;28;20252;-83
2022/01/25 00:46:28;;;;;;;5.07;4.17;;;;;;;4.00;100.00;100740.34;5112545;28;20258;-83
2022/01/25 00:49:01;;;;;;;4.93;4.17;;;;;;;3.85;100.00;100740.50;5108552;28;20191;-82
2022/01/25 00:54:27;;;;;;;5.30;4.60;;;;;;;4.12;100.00;100739.31;5109843;28;20195;-83
2022/01/25 00:56:56;;;;;;;5.43;4.40;;;;;;;4.12;100.00;100733.19;5110455;28;20199;-83
2022/01/25 00:59:28;;;;;;;6.17;5.17;;;;;;;4.18;100.00;100733.13;5113462;28;20229;-82
2022/01/25 01:01:58;;;;;;;7.13;5.03;;;;;;;4.07;100.00;100740.28;5113857;28;20359;-83
2022/01/25 01:04:30;;;;;;;6.30;5.00;;;;;;;3.86;100.00;100736.13;5119198;28;20210;-83
2022/01/25 01:07:01;;;;;;;5.70;5.10;;;;;;;3.86;100.00;100733.50;5051968;28;20250;-83
2022/01/25 01:09:33;;;;;;;6.47;4.70;;;;;;;3.96;100.00;100736.03;5048570;28;20201;-83
2022/01/25 01:12:06;;;;;;;7.20;4.90;;;;;;;3.92;100.00;100741.31;5054360;28;20205;-83
2022/01/25 01:31:13;;;;;;;6.80;4.90;;;;;;;3.92;100.00;100746.53;5117969;28;20191;-83
2022/01/25 01:44:53;;;;;;;9.07;5.10;;;;;;;3.44;100.00;100744.41;5100122;28;20218;-83
2022/01/25 01:47:34;;;;;;;7.63;5.00;;;;;;;3.18;100.00;100738.53;5082502;28;20194;-83
2022/01/25 01:50:08;;;;;;;8.33;4.87;;;;;;;3.37;100.00;100742.72;5117700;28;20240;-82
2022/01/25 01:52:37;;;;;;;9.90;6.07;;;;;;;3.62;100.00;100743.38;5117872;28;20201;-83
2022/01/25 01:55:07;;;;;;;7.60;5.97;;;;;;;3.48;100.00;100745.28;5113879;28;20202;-81
2022/01/25 01:57:36;;;;;;;6.33;5.43;;;;;;;3.59;100.00;100750.41;5133582;28;20222;-82
2022/01/25 02:00:06;;;;;;;7.90;5.90;;;;;;;3.67;100.00;100757.31;5114919;28;20242;-83
2022/01/25 02:02:36;;;;;;;6.93;5.87;;;;;;;3.70;100.00;100751.16;5112087;28;20195;-83
2022/01/25 02:05:07;;;;;;;8.10;6.77;;;;;;;3.72;100.00;100745.00;5109453;28;20219;-83
2022/01/25 02:07:36;;;;;;;7.87;7.03;;;;;;;3.81;100.00;100749.28;5080289;28;20280;-83
2022/01/25 02:10:06;;;;;;;7.00;6.30;;;;;;;3.94;100.00;100756.13;5113447;28;20255;-83
2022/01/25 02:12:35;;;;;;;7.03;6.33;;;;;;;3.98;100.00;100752.59;5113011;28;20660;-84
2022/01/25 02:15:04;;;;;;;8.17;5.90;;;;;;;3.92;100.00;100747.41;5117918;28;20195;-83
2022/01/25 02:17:56;;;;;;;6.90;5.50;;;;;;;3.94;100.00;100739.53;5104685;28;20196;-83
2022/01/25 02:23:18;;;;;;;9.00;5.37;;;;;;;3.94;100.00;100723.78;5072209;28;20251;-83
2022/01/25 02:25:53;;;;;;;7.50;6.73;;;;;;;3.95;100.00;100728.16;5113506;28;20214;-82
2022/01/25 02:28:22;;;;;;;7.13;6.00;;;;;;;3.96;100.00;100727.28;5116410;28;20225;-83
2022/01/25 02:30:50;;;;;;;7.63;5.33;;;;;;;3.88;100.00;100726.50;5109910;28;20665;-83
2022/01/25 02:33:22;;;;;;;6.13;5.03;;;;;;;3.88;100.00;100721.25;5117012;28;20195;-83
2022/01/25 02:35:52;;;;;;;8.97;5.80;;;;;;;3.88;100.00;100723.88;5112981;28;20233;-82
2022/01/25 02:38:22;;;;;;;8.33;6.50;;;;;;;3.92;100.00;100726.44;5117214;28;20198;-83
2022/01/25 02:40:55;;;;;;;6.87;5.67;;;;;;;3.83;100.00;100728.31;5054711;28;20279;-82
2022/01/25 02:43:27;;;;;;;7.23;5.60;;;;;;;3.72;100.00;100717.94;5017841;28;20191;-83
2022/01/25 02:48:56;;;;;;;9.77;7.43;;;;;;;3.85;100.00;100723.91;5048739;28;20212;-83
2022/01/25 02:51:28;;;;;;;9.50;7.80;;;;;;;3.80;100.00;100723.09;5051824;28;20422;-83
2022/01/25 02:53:57;;;;;;;9.03;6.77;;;;;;;3.93;100.00;100722.94;5013467;28;20209;-83
2022/01/25 02:56:27;;;;;;;8.03;6.63;;;;;;;3.94;100.00;100718.56;5014273;28;20206;-83
2022/01/25 02:58:56;;;;;;;8.63;6.37;;;;;;;3.79;100.00;100714.38;5043175;28;20199;-83
2022/01/25 03:01:25;;;;;;;7.40;6.50;;;;;;;3.81;100.00;100725.69;5091277;28;20211;-83
2022/01/25 03:03:53;;;;;;;9.70;6.13;;;;;;;3.96;100.00;100719.44;5094403;28;20192;-83
2022/01/25 03:06:24;;;;;;;8.23;6.60;;;;;;;3.88;100.00;100705.53;5091359;28;20222;-83
2022/01/25 03:08:55;;;;;;;9.17;6.60;;;;;;;3.86;100.00;100708.19;5091431;28;20192;-83
2022/01/25 03:11:24;;;;;;;6.80;6.20;;;;;;;3.90;100.00;100709.88;5098187;28;20212;-83
2022/01/25 03:13:55;;;;;;;7.07;6.37;;;;;;;3.96;100.00;100699.31;5107537;28;20199;-83
2022/01/25 03:16:31;;;;;;;9.20;6.63;;;;;;;3.81;100.00;100688.16;5113506;28;20197;-83
2022/01/25 03:19:04;;;;;;;9.70;8.30;;;;;;;3.77;100.00;100691.69;5111332;28;20186;-82
2022/01/25 03:21:38;;;;;;;9.97;7.47;;;;;;;3.85;100.00;100689.81;5113022;28;20244;-82
2022/01/25 03:24:09;;;;;;;9.07;7.27;;;;;;;3.94;100.00;100681.84;5110409;28;20195;-83
2022/01/25 03:26:38;;;;;;;12.63;8.57;;;;;;;3.87;100.00;100691.56;5113453;28;20219;-83
2022/01/25 03:29:06;;;;;;;10.07;7.63;;;;;;;3.71;100.00;100695.25;5085642;28;20646;-83
2022/01/25 03:31:34;;;;;;;8.27;6.57;;;;;;;3.85;100.00;100679.34;5088865;28;20717;-83
2022/01/25 03:34:03;;;;;;;8.33;7.17;;;;;;;3.77;100.00;100678.59;5089708;28;20199;-83
2022/01/25 03:36:31;;;;;;;7.33;6.53;;;;;;;3.84;100.00;100673.25;5089671;28;20202;-83
2022/01/25 03:39:00;;;;;;;9.07;7.90;;;;;;;3.76;100.00;100674.22;5089390;28;20206;-83
2022/01/25 03:41:36;;;;;;;9.33;7.67;;;;;;;3.41;100.00;100663.25;5089978;28;20705;-83
2022/01/25 03:44:05;;;;;;;10.87;7.90;;;;;;;3.60;100.00;100663.06;5058753;28;20702;-82
2022/01/25 03:46:40;;;;;;;8.13;6.57;;;;;;;3.68;100.00;100675.19;5085456;28;20732;-83
2022/01/25 03:51:57;;;;;;;8.23;7.27;;;;;;;3.79;100.00;100667.19;5093404;28;20200;-83
2022/01/25 03:54:25;;;;;;;9.53;7.87;;;;;;;3.76;100.00;100674.22;5108656;28;20194;-83
2022/01/25 03:56:55;;;;;;;8.87;7.97;;;;;;;3.70;100.00;100673.41;5112274;28;20202;-83
2022/01/25 03:59:25;;;;;;;9.17;6.47;;;;;;;3.65;100.00;100669.97;5107218;28;20253;-83
2022/01/25 04:01:53;;;;;;;10.90;7.27;;;;;;;3.65;100.00;100671.72;5050104;28;20196;-83
2022/01/25 04:04:24;;;;;;;8.23;7.33;;;;;;;3.70;100.00;100676.03;5047153;28;20207;-83
2022/01/25 04:06:53;;;;;;;8.23;7.20;;;;;;;3.07;100.00;100672.31;5046866;28;20228;-83
2022/01/25 04:09:22;;;;;;;9.83;7.00;;;;;;;3.13;100.00;100680.13;5052201;28;20644;-83
2022/01/25 04:11:53;;;;;;;8.90;7.30;;;;;;;2.90;100.00;100682.97;5047206;28;20266;-83
2022/01/25 04:14:23;;;;;;;8.97;7.27;;;;;;;2.89;100.00;100681.19;5048195;28;20197;-83
2022/01/25 04:16:57;;;;;;;9.43;7.83;;;;;;;2.82;100.00;100687.38;5053851;28;20201;-83
2022/01/25 04:19:33;;;;;;;9.37;7.87;;;;;;;2.87;100.00;100682.97;5063311;28;20186;-83
2022/01/25 04:25:13;;;;;;;11.53;8.97;;;;;;;2.87;100.00;100702.13;5110000;28;20202;-83
2022/01/25 04:27:42;;;;;;;11.87;10.33;;;;;;;2.87;100.00;100706.50;5106833;28;20350;-83
2022/01/25 04:30:13;;;;;;;12.10;9.80;;;;;;;3.05;100.00;100703.75;5109858;28;20203;-83
2022/01/25 04:32:46;;;;;;;11.10;9.70;;;;;;;3.16;100.00;100706.25;5106902;28;20199;-83
2022/01/25 04:35:29;;;;;;;13.97;10.03;;;;;;;3.00;100.00;100696.84;5107216;28;20221;-83
2022/01/25 04:49:26;;;;;;;10.00;8.13;;;;;;;2.93;100.00;100695.13;4993002;28;20202;-82
2022/01/25 04:52:01;;;;;;;14.23;8.60;;;;;;;2.99;100.00;100693.34;5003445;28;20202;-83
2022/01/25 04:54:53;;;;;;;10.73;8.20;;;;;;;2.96;100.00;100703.81;5013201;28;20194;-81
2022/01/25 05:00:15;;;;;;;13.10;9.50;;;;;;;3.10;100.00;100701.97;5023684;28;20226;-83
2022/01/25 05:02:51;;;;;;;12.80;8.83;;;;;;;2.81;100.00;100696.97;5026046;28;20633;-83
2022/01/25 05:05:27;;;;;;;10.20;8.83;;;;;;;3.00;100.00;100694.22;5026947;28;20201;-83
2022/01/25 05:08:02;;;;;;;10.47;9.03;;;;;;;3.00;100.00;100695.09;5099741;28;20226;-83
2022/01/25 05:10:36;;;;;;;10.30;8.30;;;;;;;3.09;100.00;100700.25;5109320;28;20190;-82
2022/01/25 05:13:17;;;;;;;10.90;9.10;;;;;;;3.14;100.00;100701.06;5109584;28;20198;-83
2022/01/25 05:16:06;;;;;;;11.03;8.87;;;;;;;2.89;100.00;100707.34;5109125;28;20237;-83
2022/01/25 05:18:50;;;;;;;11.93;8.83;;;;;;;2.88;100.00;100703.88;5109304;28;20199;-84
2022/01/25 05:24:04;;;;;;;14.13;10.97;;;;;;;3.16;100.00;100698.41;5110829;28;20225;-84
2022/01/25 05:26:33;;;;;;;13.83;10.67;;;;;;;3.22;100.00;100701.00;5104961;28;20223;-83
2022/01/25 05:29:01;;;;;;;12.07;10.50;;;;;;;3.39;100.00;100701.69;5111899;28;20214;-83
2022/01/25 05:31:29;;;;;;;13.03;10.17;;;;;;;3.44;100.00;100702.50;5116177;28;20190;-83
2022/01/25 05:33:59;;;;;;;13.10;10.20;;;;;;;3.45;100.00;100698.13;5118853;28;20199;-83
2022/01/25 05:36:27;;;;;;;12.83;10.43;;;;;;;3.45;100.00;100695.50;5116077;28;20280;-82
2022/01/25 05:38:58;;;;;;;11.70;10.47;;;;;;;3.36;100.00;100698.22;5126604;28;20175;-82
2022/01/25 05:41:29;;;;;;;11.80;9.13;;;;;;;3.28;100.00;100689.56;5133458;28;20221;-82
2022/01/25 05:49:43;;;;;;;18.13;11.30;;;;;;;3.57;100.00;100692.78;5140940;28;20186;-82
2022/01/25 05:52:13;;;;;;;12.30;10.67;;;;;;;3.53;100.00;100688.44;5120662;28;20187;-83
2022/01/25 05:54:42;;;;;;;11.93;9.93;;;;;;;3.42;100.00;100691.19;5120764;28;20194;-83
2022/01/25 05:57:12;;;;;;;13.17;10.50;;;;;;;3.21;100.00;100685.28;5052188;28;20199;-82
2022/01/25 05:59:40;;;;;;;12.40;10.03;;;;;;;3.47;100.00;100685.88;5015529;28;20226;-83
2022/01/25 06:02:08;;;;;;;13.73;9.90;;;;;;;3.31;100.00;100686.94;5030779;28;20201;-83
2022/01/25 06:04:39;;;;;;;13.23;9.90;;;;;;;3.34;100.00;100684.28;5032548;28;20208;-83
2022/01/25 06:07:07;;;;;;;10.67;8.93;;;;;;;3.51;100.00;100684.97;5034960;28;20218;-83
2022/01/25 06:09:41;;;;;;;11.70;9.37;;;;;;;3.43;100.00;100689.44;5015337;28;20236;-85
2022/01/25 06:12:11;;;;;;;11.93;9.37;;;;;;;3.36;100.00;100685.13;5010992;28;20202;-85
2022/01/25 06:14:40;;;;;;;12.17;9.57;;;;;;;3.21;100.00;100683.53;5013781;28;20235;-85
2022/01/25 06:17:08;;;;;;;13.87;10.63;;;;;;;3.26;100.00;100683.47;5005679;28;20201;-85
2022/01/25 06:19:36;;;;;;;12.77;9.77;;;;;;;3.39;100.00;100674.66;5054883;28;20190;-85
2022/01/25 06:22:06;;;;;;;13.83;9.77;;;;;;;3.30;100.00;100683.47;5049322;28;20201;-85
2022/01/25 06:24:35;;;;;;;12.87;10.37;;;;;;;3.45;100.00;100675.44;5047956;28;20235;-84
2022/01/25 06:27:05;;;;;;;12.77;10.97;;;;;;;3.42;100.00;100670.22;5058317;28;20224;-84
2022/01/25 06:29:35;;;;;;;12.80;10.43;;;;;;;3.50;100.00;100662.28;5093287;28;20200;-85
2022/01/25 06:32:04;;;;;;;11.47;9.90;;;;;;;3.55;100.00;100667.47;5094438;28;20192;-84
2022/01/25 06:34:33;;;;;;;14.33;10.67;;;;;;;3.47;100.00;100664.06;5094084;28;20635;-85
2022/01/25 06:37:02;;;;;;;12.27;10.63;;;;;;;3.35;100.00;100667.69;5091216;28;20195;-85
2022/01/25 06:39:31;;;;;;;15.20;11.17;;;;;;;3.21;100.00;100669.59;5091294;28;20199;-83
2022/01/25 06:42:00;;;;;;;12.60;10.90;;;;;;;3.36;100.00;100664.19;5096616;28;20202;-82
2022/01/25 06:44:28;;;;;;;13.13;10.23;;;;;;;3.39;100.00;100662.41;5086997;28;20196;-82
2022/01/25 06:46:58;;;;;;;13.70;10.23;;;;;;;2.96;100.00;100656.72;5089802;28;20196;-83
2022/01/25 06:49:31;;;;;;;11.47;9.30;;;;;;;2.67;100.00;100667.41;5087212;28;20194;-83
2022/01/25 06:52:10;;;;;;;12.17;8.70;;;;;;;2.91;100.00;100666.38;5091349;28;20207;-83
2022/01/25 06:54:41;;;;;;;12.23;9.40;;;;;;;3.10;100.00;100673.19;5096239;28;20196;-83
2022/01/25 06:57:09;;;;;;;11.37;10.17;;;;;;;3.18;100.00;100670.47;5094625;28;20207;-83
2022/01/25 06:59:38;;;;;;;15.73;9.57;;;;;;;3.07;100.00;100667.09;5095621;28;20225;-83
2022/01/25 07:02:08;;;;;;;12.87;10.10;;;;;;;3.19;100.00;100668.75;5108926;28;20202;-83
2022/01/25 07:04:37;;;;;;;13.47;10.90;;;;;;;3.12;100.00;100668.78;5070285;28;20229;-83
2022/01/25 07:07:06;;;;;;;13.80;11.07;;;;;;;3.16;100.00;100674.84;5068249;28;20204;-82
2022/01/25 07:09:35;;;;;;;16.43;11.20;;;;;;;3.27;100.00;100678.22;5041223;28;20189;-83
2022/01/25 07:12:06;;;;;;;17.00;12.37;;;;;;;3.17;100.00;100681.81;5019357;28;20292;-83
2022/01/25 07:14:35;;;;;;;14.90;10.87;;;;;;;3.28;100.00;100685.22;5072413;28;20196;-83
2022/01/25 07:17:04;;;;;;;14.70;11.30;;;;;;;3.23;100.00;100679.16;5071130;28;20199;-83
2022/01/25 07:19:33;;;;;;;16.17;12.23;;;;;;;3.31;100.00;100682.56;5007418;28;20198;-83
2022/01/25 07:22:03;;;;;;;14.03;11.13;;;;;;;3.40;100.00;100681.63;5013259;28;20189;-83
2022/01/25 07:24:34;;;;;;;18.43;12.90;;;;;;;3.18;100.00;100686.16;4992866;28;20218;-83
2022/01/25 07:27:03;;;;;;;14.50;12.00;;;;;;;3.33;100.00;100691.28;4994157;28;20203;-83
2022/01/25 07:29:33;;;;;;;13.30;11.70;;;;;;;3.36;100.00;100690.38;4990752;28;20193;-83
2022/01/25 07:32:02;;;;;;;13.60;11.27;;;;;;;3.42;100.00;100687.69;4993654;28;20201;-83
2022/01/25 07:34:36;;;;;;;14.33;10.77;;;;;;;3.38;100.00;100691.25;4990216;28;20225;-82
2022/01/25 07:37:19;;;;;;;17.07;11.23;;;;;;;3.43;100.00;100692.06;5011281;28;20193;-83
2022/01/25 07:39:50;;;;;;;16.30;12.23;;;;;;;3.42;100.00;100691.19;5050702;28;20192;-84
2022/01/25 07:42:18;;;;;;;17.70;12.03;;;;;;;3.41;100.00;100691.19;5073992;28;20270;-82
2022/01/25 07:44:49;;;;;;;14.23;11.03;;;;;;;3.55;100.00;100691.91;5108520;28;20187;-83
2022/01/25 07:47:18;;;;;;;14.63;11.23;;;;;;;3.38;100.00;100696.47;5115509;28;20195;-82
2022/01/25 07:49:49;;;;;;;15.87;11.70;;;;;;;3.33;100.00;100696.50;5110662;28;20207;-83
2022/01/25 07:52:20;;;;;;;14.60;11.67;;;;;;;3.36;100.00;100696.47;5108965;28;20195;-84
2022/01/25 07:54:50;;;;;;;14.60;10.23;;;;;;;3.19;100.00;100693.16;5110545;28;20190;-83
2022/01/25 07:57:18;;;;;;;14.13;10.47;;;;;;;3.30;100.00;100699.16;5110794;28;20191;-83
2022/01/25 07:59:46;;;;;;;13.07;10.47;;;;;;;3.27;100.00;100699.19;5108071;28;20219;-82
2022/01/25 08:02:19;;;;;;;16.43;11.43;;;;;;;3.28;100.00;100706.19;5104180;28;20240;-82
2022/01/25 08:04:54;;;;;;;15.23;11.10;;;;;;;3.31;100.00;100707.88;5114121;28;20182;-82
2022/01/25 08:07:37;;;;;;;15.87;11.50;;;;;;;3.28;100.00;100711.41;5070237;28;20292;-83
2022/01/25 08:10:10;;;;;;;18.40;12.37;;;;;;;3.28;100.00;100716.66;5108770;28;20202;-83
2022/01/25 08:12:43;;;;;;;19.13;12.43;;;;;;;3.32;100.00;100709.63;5114769;28;20198;-84
2022/01/25 08:15:31;;;;;;;15.43;12.40;;;;;;;3.29;100.00;100712.28;5033407;28;20229;-83
2022/01/25 08:18:10;;;;;;;18.13;12.63;;;;;;;3.29;100.00;100712.28;5033023;28;20204;-83
2022/01/25 08:20:54;;;;;;;17.67;12.63;;;;;;;3.28;100.00;100711.41;4951206;29;20204;-82
2022/01/25 08:23:30;;;;;;;13.87;11.93;;;;;;;3.35;100.00;100707.84;4953130;29;20211;-83
2022/01/25 08:26:06;;;;;;;15.97;12.23;;;;;;;3.38;100.00;100710.44;4950277;29;20247;-83
2022/01/25 08:28:47;;;;;;;16.60;12.50;;;;;;;3.32;100.00;100710.50;4951702;29;20219;-83
2022/01/25 08:31:29;;;;;;;21.00;12.60;;;;;;;3.31;100.00;100697.41;4877384;29;20325;-83
2022/01/25 08:34:30;;;;;;;19.23;12.33;;;;;;;3.47;100.00;100703.34;4875146;29;20298;-83
2022/01/25 08:37:13;;;;;;;17.53;12.73;;;;;;;3.49;100.00;100712.94;4876221;29;20263;-83
2022/01/25 08:39:52;;;;;;;20.10;13.60;;;;;;;3.55;100.00;100706.75;4950251;29;20296;-83
2022/01/25 08:42:21;;;;;;;19.13;13.50;;;;;;;3.45;100.00;100711.22;4960764;28;20213;-84
2022/01/25 08:45:04;;;;;;;16.57;12.23;;;;;;;3.26;100.00;100707.91;4944739;29;20192;-83
2022/01/25 08:47:46;;;;;;;18.93;13.73;;;;;;;3.43;100.00;100702.53;4915757;29;20696;-83
2022/01/25 08:50:37;;;;;;;17.97;12.63;;;;;;;3.48;100.00;100707.75;4960916;29;20279;-83
2022/01/25 08:53:19;;;;;;;26.77;15.97;;;;;;;3.34;100.00;100708.72;5004491;28;20209;-83
2022/01/25 08:56:03;;;;;;;24.53;14.80;;;;;;;3.42;100.00;100708.66;5026910;28;20208;-82
2022/01/25 08:58:40;;;;;;;16.30;12.77;;;;;;;3.43;100.00;100706.00;5049426;28;20196;-83
2022/01/25 09:01:08;;;;;;;20.80;13.53;;;;;;;3.38;100.00;100712.19;5048661;28;20221;-83
2022/01/25 09:03:38;;;;;;;18.87;12.93;;;;;;;3.38;100.00;100714.81;5035715;28;20292;-83
2022/01/25 09:06:10;;;;;;;21.27;14.63;;;;;;;3.33;100.00;100708.75;4968603;28;20199;-82
2022/01/25 09:08:38;;;;;;;19.93;14.63;;;;;;;3.43;100.00;100708.63;4947667;28;20220;-83
2022/01/25 09:11:09;;;;;;;22.03;15.03;;;;;;;3.38;100.00;100714.81;5029444;28;20210;-82
2022/01/25 09:13:37;;;;;;;24.23;15.60;;;;;;;3.39;100.00;100716.56;4969610;28;20199;-83
2022/01/25 09:16:06;;;;;;;22.77;15.20;;;;;;;3.47;100.00;100713.81;4974169;28;20196;-83
2022/01/25 09:18:36;;;;;;;24.30;15.37;;;;;;;3.45;100.00;100713.84;4976562;28;20204;-83
2022/01/25 09:21:04;;;;;;;19.33;14.20;;;;;;;3.08;100.00;100710.69;4979765;28;20195;-83
2022/01/25 09:23:34;;;;;;;20.60;13.63;;;;;;;3.26;100.00;100717.53;4989065;28;20248;-83
2022/01/25 09:26:03;;;;;;;19.47;13.37;;;;;;;3.31;100.00;100723.59;5029161;28;20202;-82
2022/01/25 09:28:32;;;;;;;20.53;12.67;;;;;;;3.29;100.00;100722.75;5035160;28;20222;-82
2022/01/25 09:31:01;;;;;;;18.43;13.10;;;;;;;3.24;100.00;100720.16;5034741;28;20185;-82
2022/01/25 09:33:30;;;;;;;20.80;13.77;;;;;;;3.33;100.00;100727.06;5031098;28;20197;-82
2022/01/25 09:35:59;;;;;;;21.13;13.50;;;;;;;3.26;100.00;100728.88;5035003;28;20197;-82
2022/01/25 09:38:27;;;;;;;16.90;12.83;;;;;;;3.12;100.00;100731.63;5030219;28;20202;-82
2022/01/25 09:40:57;;;;;;;18.07;13.47;;;;;;;3.20;100.00;100728.94;4989220;28;20654;-82
2022/01/25 09:43:27;;;;;;;17.30;12.13;;;;;;;3.08;100.00;100724.66;4991891;28;20253;-82
2022/01/25 09:45:56;;;;;;;16.13;12.13;;;;;;;3.01;100.00;100735.22;5012752;28;20201;-82
2022/01/25 09:48:26;;;;;;;20.43;13.57;;;;;;;3.11;100.00;100735.13;5011137;28;20281;-83
2022/01/25 09:50:58;;;;;;;20.50;13.27;;;;;;;3.06;100.00;100730.78;5015251;28;20260;-82
2022/01/25 09:53:29;;;;;;;17.57;12.23;;;;;;;3.07;100.00;100732.53;5013657;28;20272;-82
2022/01/25 09:56:00;;;;;;;17.50;12.50;;;;;;;3.24;100.00;100735.00;4954426;29;20193;-83
2022/01/25 09:58:28;;;;;;;20.90;13.47;;;;;;;3.23;100.00;100744.63;4963911;28;20191;-82
2022/01/25 10:01:01;;;;;;;18.47;13.20;;;;;;;3.37;100.00;100745.34;5012919;28;20229;-82
2022/01/25 10:03:36;;;;;;;19.37;12.57;;;;;;;3.25;100.00;100737.59;5026535;28;20206;-83
2022/01/25 10:06:11;;;;;;;20.37;12.20;;;;;;;3.28;100.00;100739.31;5054503;28;20203;-82
2022/01/25 10:08:40;;;;;;;19.27;13.10;;;;;;;3.37;100.00;100750.56;5050192;28;20196;-82
2022/01/25 10:11:12;;;;;;;18.13;12.33;;;;;;;3.19;100.00;100750.78;5049091;28;20185;-83
2022/01/25 10:13:42;;;;;;;18.60;12.73;;;;;;;3.23;100.00;100743.75;5064439;28;20227;-82
2022/01/25 10:16:13;;;;;;;18.43;13.00;;;;;;;3.34;100.00;100753.25;5090623;28;20233;-82
2022/01/25 10:18:44;;;;;;;17.77;12.37;;;;;;;3.37;100.00;100747.09;5088715;28;20287;-82
2022/01/25 10:21:16;;;;;;;17.20;12.47;;;;;;;3.32;100.00;100747.16;5043080;28;20192;-82
2022/01/25 10:24:04;;;;;;;17.87;11.53;;;;;;;3.20;100.00;100746.41;5096745;28;20244;-82
2022/01/25 10:26:35;;;;;;;16.30;11.50;;;;;;;3.34;100.00;100749.75;5117282;28;20197;-82
2022/01/25 10:29:13;;;;;;;18.37;11.53;;;;;;;3.39;100.00;100748.84;5113757;28;20752;-82
2022/01/25 10:31:44;;;;;;;15.80;11.10;;;;;;;3.45;100.00;100745.28;5116607;28;20267;-82
2022/01/25 10:34:17;;;;;;;16.50;11.63;;;;;;;3.54;100.00;100750.44;5109359;28;20191;-83
2022/01/25 10:36:49;;;;;;;16.53;11.47;;;;;;;3.53;100.00;100750.44;5116820;28;20198;-82
2022/01/25 10:39:23;;;;;;;18.43;11.43;;;;;;;3.64;100.00;100753.81;5106093;28;20199;-82
2022/01/25 10:42:01;;;;;;;15.50;10.10;;;;;;;3.58;100.00;100757.41;5117287;28;20216;-82
2022/01/25 10:44:54;;;;;;;17.47;10.80;;;;;;;3.49;100.00;100751.38;5113041;28;20191;-82
2022/01/25 10:47:39;;;;;;;14.67;10.13;;;;;;;3.22;100.00;100750.72;5111240;28;20195;-83
2022/01/25 10:50:14;;;;;;;13.53;10.80;;;;;;;3.41;100.00;100747.06;5110933;28;20279;-82
2022/01/25 10:52:42;;;;;;;21.73;15.80;;;;;;;3.38;100.00;100744.50;5078646;28;20200;-84
2022/01/25 10:55:12;;;;;;;26.77;19.47;;;;;;;3.41;100.00;100743.59;5112901;28;20187;-84
2022/01/25 10:57:42;;;;;;;27.20;17.97;;;;;;;3.47;100.00;100740.88;5115566;28;20202;-83
2022/01/25 11:00:32;;;;;;;20.20;13.27;;;;;;;3.51;100.00;100734.75;5115808;28;20229;-84
2022/01/25 11:03:02;;;;;;;40.33;25.57;;;;;;;3.70;100.00;100728.44;5111428;28;20203;-84
2022/01/25 11:05:35;;;;;;;80.73;50.70;;;;;;;3.79;100.00;100721.38;5114760;28;20278;-84
2022/01/25 11:08:12;;;;;;;24.23;16.17;;;;;;;3.60;100.00;100723.31;5109978;28;20199;-84
2022/01/25 11:10:47;;;;;;;22.57;15.60;;;;;;;3.41;100.00;100717.41;5112754;28;20222;-84
2022/01/25 11:16:08;;;;;;;14.90;11.33;;;;;;;3.42;100.00;100709.53;5112378;28;20209;-84
2022/01/25 11:18:37;;;;;;;18.30;11.97;;;;;;;3.41;100.00;100713.03;5113729;28;20199;-84
2022/01/25 11:21:07;;;;;;;15.17;11.00;;;;;;;3.50;100.00;100705.97;5110917;28;20191;-84
2022/01/25 11:23:39;;;;;;;18.13;11.40;;;;;;;3.27;100.00;100703.53;5111961;28;20187;-84
2022/01/25 11:26:10;;;;;;;20.23;12.30;;;;;;;3.29;100.00;100707.03;5059820;28;20195;-84
2022/01/25 11:28:41;;;;;;;12.17;9.60;;;;;;;3.44;100.00;100705.13;5063180;28;20190;-84
2022/01/25 11:31:14;;;;;;;16.93;11.17;;;;;;;3.58;100.00;100709.38;5116148;28;20732;-84
2022/01/25 11:33:45;;;;;;;15.03;10.50;;;;;;;3.66;100.00;100715.38;5104683;28;20206;-84
2022/01/25 11:36:14;;;;;;;17.23;11.87;;;;;;;3.70;100.00;100710.09;5110695;28;20198;-84
2022/01/25 11:38:45;;;;;;;16.83;11.03;;;;;;;3.28;100.00;100703.56;5108192;28;20195;-84
2022/01/25 11:41:16;;;;;;;18.17;12.13;;;;;;;3.49;100.00;100699.84;5049982;28;20315;-84
2022/01/25 11:44:05;;;;;;;15.30;10.47;;;;;;;3.47;100.00;100691.13;5046318;28;20212;-85
2022/01/25 11:46:36;;;;;;;13.43;9.30;;;;;;;3.59;100.00;100688.41;5048245;28;20648;-85
2022/01/25 11:49:07;;;;;;;17.90;11.17;;;;;;;3.58;100.00;100691.03;5045417;28;20243;-84
2022/01/25 11:51:36;;;;;;;17.67;9.97;;;;;;;3.77;100.00;100691.69;5047695;28;20321;-84
2022/01/25 11:54:06;;;;;;;16.70;10.13;;;;;;;3.78;100.00;100690.81;5013228;28;20241;-84
2022/01/25 11:56:36;;;;;;;14.47;10.07;;;;;;;3.77;100.00;100687.31;5006957;28;20248;-83
2022/01/25 11:59:15;;;;;;;13.60;9.90;;;;;;;3.68;100.00;100685.69;5033676;28;20253;-84
2022/01/25 12:01:52;;;;;;;15.93;10.73;;;;;;;3.54;100.00;100679.69;5089202;28;20677;-85
2022/01/25 12:04:30;;;;;;;16.10;10.50;;;;;;;3.30;100.00;100683.47;5091037;28;20200;-84
2022/01/25 12:07:02;;;;;;;13.63;9.73;;;;;;;3.54;100.00;100682.31;5087811;28;20199;-84
2022/01/25 12:09:49;;;;;;;14.37;9.50;;;;;;;3.47;100.00;100679.78;5088282;28;20215;-84
2022/01/25 12:12:17;;;;;;;14.67;9.70;;;;;;;3.52;100.00;100681.47;5101404;28;20203;-84
2022/01/25 12:14:52;;;;;;;16.43;10.83;;;;;;;3.53;100.00;100680.59;5111572;28;20333;-84
2022/01/25 12:17:24;;;;;;;15.87;10.40;;;;;;;3.36;100.00;100677.28;5115388;28;20241;-83
2022/01/25 12:19:57;;;;;;;16.63;11.50;;;;;;;3.45;100.00;100682.41;5110104;28;20187;-84
2022/01/25 12:22:35;;;;;;;34.13;26.03;;;;;;;3.56;100.00;100685.78;5110839;28;20202;-84
2022/01/25 12:25:10;;;;;;;17.83;10.77;;;;;;;3.52;100.00;100681.47;5108772;28;20270;-84
2022/01/25 12:27:51;;;;;;;13.40;9.43;;;;;;;3.72;100.00;100676.88;5112070;28;20263;-84
2022/01/25 12:30:32;;;;;;;15.50;10.33;;;;;;;3.63;100.00;100679.59;5114579;28;20214;-83
2022/01/25 12:33:03;;;;;;;14.03;10.03;;;;;;;3.64;100.00;100676.09;5108115;28;20366;-84
2022/01/25 12:35:46;;;;;;;15.70;10.50;;;;;;;3.58;100.00;100670.94;5112276;28;20649;-84
2022/01/25 12:38:18;;;;;;;18.77;11.73;;;;;;;3.79;100.00;100675.06;5104231;28;20203;-83
2022/01/25 12:41:02;;;;;;;24.67;15.10;;;;;;;3.80;100.00;100666.31;5111416;28;20195;-84
2022/01/25 12:43:35;;;;;;;17.67;12.30;;;;;;;3.55;100.00;100668.34;5108359;28;20248;-84
2022/01/25 12:46:08;;;;;;;22.13;14.20;;;;;;;3.46;100.00;100671.06;5107607;28;20205;-84
2022/01/25 12:48:39;;;;;;;16.60;12.57;;;;;;;3.65;100.00;100664.72;5074823;28;20199;-84
2022/01/25 12:51:12;;;;;;;15.80;11.80;;;;;;;3.91;100.00;100653.94;5110779;28;20243;-84
2022/01/25 12:53:43;;;;;;;20.20;12.40;;;;;;;3.85;100.00;100661.88;5112984;28;20190;-84
2022/01/25 12:56:16;;;;;;;18.03;11.10;;;;;;;3.81;100.00;100651.44;5113196;28;20190;-84
2022/01/25 12:58:46;;;;;;;15.07;10.63;;;;;;;3.87;100.00;100648.78;5111442;28;20237;-84
2022/01/25 13:01:19;;;;;;;22.07;13.73;;;;;;;4.00;100.00;100650.34;5116327;28;20270;-84
2022/01/25 13:03:50;;;;;;;15.13;11.40;;;;;;;4.02;100.00;100644.16;4987236;28;20545;-84
2022/01/25 13:06:21;;;;;;;15.30;10.63;;;;;;;3.91;100.00;100639.97;5029929;28;20190;-84